Página principal
METAR-TAF:

METAR-TAF

Aeroportos :

Gulkana, Alasca, Estados Unidos

latitude: 62-09N, longitude: 145-27W, altura: 481 m

Observação actual do tempo

O boletim foi feito há 39 minutos, às 10:53 UTC
Vento 10 kt de norte
Temperatura 12°C
Humidade 58%
Pressão 1018 hPa
Visibilidade: 16.1 km
Céu limpo

METAR: PAGK 151053Z AUTO 35010KT 10SM CLR 12/04 A3005 RMK AO2 SLP171 T01170044 TSNO $

Hora: 03:32 (11:32 UTC)

Previsão

O boletim foi feito há 6 horas e 4 minutos, às 05:28 UTC
Previsão válida de 15 às 06 UTC a 16 às 06 UTC
Vento 9 kt de norte
Visibilidade: 10 km
Poucas nuvensa uma altura de 6000 ft
Nuvens dispersasa uma altura de 12000 ft
A partir de 15 às 0800 UTC
Vento 4 kt com direcção variável
Visibilidade: 10 km
Céu limpo
A partir de 16 às 0100 UTC
Vento 11 kt de norte
Visibilidade: 10 km
Nuvens dispersasa uma altura de 7000 ft

TAF: PAGK 150528Z 1506/1606 01009KT P6SM FEW060 SCT120 FM150800 VRB04KT P6SM SKC FM160100 01011KT P6SM SCT070

Observações e previsões do tempo de mais de 4000 aeroportos (mensagens METAR e TAF).

As estações disponíveis são os pontos amarelos e vermelhos sobre o mapa.

Mova o rato sobre o mapa para ver o nome da estação.

Depois clique no ponto para visualizar as observações e previsões meteorológicas.

Para alterar o mapa : clique nos botões verdes com uma cruz preta para aumentar o zoom; no botão verde com uma pitada de zoom; ou nas setas verdes para mapas adjacentes.


METAR-TAF: